createdAt,value
2023-01-19T00:00:45.019Z,99054.70
2023-01-19T00:04:04.374Z,99064.30
2023-01-19T00:07:08.486Z,99071.70
2023-01-19T00:10:12.712Z,99074.36
2023-01-19T00:13:17.091Z,99072.73
2023-01-19T00:16:23.320Z,99079.35
2023-01-19T00:19:28.629Z,99076.12
2023-01-19T00:22:32.668Z,99076.64
2023-01-19T00:25:42.595Z,99083.45
2023-01-19T00:28:46.839Z,99086.10
2023-01-19T00:31:51.201Z,99095.25
2023-01-19T00:34:55.282Z,99098.41
2023-01-19T00:37:59.708Z,99107.88
2023-01-19T00:41:03.632Z,99116.20
2023-01-19T00:44:07.750Z,99124.36
2023-01-19T00:47:11.687Z,99119.50
2023-01-19T00:50:17.366Z,99122.36
2023-01-19T00:53:21.320Z,99109.61
2023-01-19T00:56:25.541Z,99110.30
2023-01-19T00:59:29.456Z,99103.88
2023-01-19T01:02:34.009Z,99099.56
2023-01-19T01:05:41.852Z,99092.75
2023-01-19T01:08:46.120Z,99088.42
2023-01-19T01:11:50.434Z,99083.29
2023-01-19T01:14:55.565Z,99088.33
2023-01-19T01:17:59.360Z,99088.64
2023-01-19T01:21:05.459Z,99087.63
2023-01-19T01:24:10.100Z,99091.77
2023-01-19T01:27:13.985Z,99092.82
2023-01-19T01:30:18.736Z,99092.61
2023-01-19T01:33:40.994Z,99087.17
2023-01-19T01:36:45.914Z,99083.30
2023-01-19T01:39:49.837Z,99085.20
2023-01-19T01:42:54.043Z,99088.27
2023-01-19T01:45:58.022Z,99084.79
2023-01-19T01:49:13.523Z,99079.30
2023-01-19T01:52:18.052Z,99079.94
2023-01-19T01:55:23.404Z,99083.41
2023-01-19T01:58:27.595Z,99089.66
2023-01-19T02:01:51.008Z,99101.80
2023-01-19T02:05:04.289Z,99102.95
2023-01-19T02:08:32.938Z,99103.55
2023-01-19T02:11:55.999Z,99095.55
2023-01-19T02:14:59.877Z,99090.98
2023-01-19T02:18:04.025Z,99086.85
2023-01-19T02:21:23.010Z,99081.58
2023-01-19T02:24:28.345Z,99079.75
2023-01-19T02:27:33.237Z,99085.18
2023-01-19T02:30:40.063Z,99086.56
2023-01-19T02:33:44.456Z,99084.52
2023-01-19T02:36:58.365Z,99088.16
2023-01-19T02:40:05.228Z,99094.84
2023-01-19T02:43:09.549Z,99091.66
2023-01-19T02:46:15.873Z,99086.40
2023-01-19T02:49:20.034Z,99080.55
2023-01-19T02:52:24.636Z,99077.26
2023-01-19T02:55:31.343Z,99082.29
2023-01-19T02:58:54.817Z,99080.00
2023-01-19T03:02:17.801Z,99079.71
2023-01-19T03:05:45.247Z,99073.52
2023-01-19T03:09:03.371Z,99065.23
2023-01-19T03:12:43.012Z,99072.46
2023-01-19T03:15:58.070Z,99079.40
2023-01-19T03:19:19.219Z,99082.64
2023-01-19T03:22:28.424Z,99089.98
2023-01-19T03:25:36.984Z,99095.60
2023-01-19T03:28:43.102Z,99103.70
2023-01-19T03:31:51.034Z,99104.80
2023-01-19T03:34:56.988Z,99113.20
2023-01-19T03:38:05.955Z,99114.63
2023-01-19T03:41:15.588Z,99121.63
2023-01-19T03:44:19.622Z,99120.01
2023-01-19T03:47:25.223Z,99124.42
2023-01-19T03:50:30.780Z,99131.39
2023-01-19T03:53:34.774Z,99137.09
2023-01-19T03:56:38.726Z,99134.45
2023-01-19T03:59:42.677Z,99131.98
2023-01-19T04:02:46.839Z,99133.42
2023-01-19T04:05:51.106Z,99145.84
2023-01-19T04:08:55.106Z,99145.17
2023-01-19T04:12:01.608Z,99145.46
2023-01-19T04:15:07.084Z,99150.48
2023-01-19T04:18:11.883Z,99153.55
2023-01-19T04:21:16.307Z,99156.34
2023-01-19T04:24:20.930Z,99159.30
2023-01-19T04:27:26.176Z,99160.71
2023-01-19T04:30:30.089Z,99160.70
2023-01-19T04:33:34.780Z,99169.28
2023-01-19T04:36:39.443Z,99175.89
2023-01-19T04:39:43.686Z,99178.28
2023-01-19T04:42:47.694Z,99185.21
2023-01-19T04:45:51.897Z,99193.85
2023-01-19T04:48:55.780Z,99200.70
2023-01-19T04:51:59.930Z,99199.29
2023-01-19T04:55:06.712Z,99196.36
2023-01-19T04:58:10.649Z,99193.79
2023-01-19T05:01:14.663Z,99193.67
2023-01-19T05:04:18.879Z,99203.41
2023-01-19T05:07:22.785Z,99205.18
2023-01-19T05:10:26.731Z,99205.73
2023-01-19T05:13:30.657Z,99213.23
2023-01-19T05:16:34.727Z,99228.98
2023-01-19T05:19:39.033Z,99220.36
2023-01-19T05:22:43.895Z,99214.77
2023-01-19T05:25:48.508Z,99209.92
2023-01-19T05:28:52.328Z,99218.65
2023-01-19T05:31:56.605Z,99227.80
2023-01-19T05:35:00.870Z,99233.02
2023-01-19T05:38:04.792Z,99231.91
2023-01-19T05:41:08.809Z,99230.45
2023-01-19T05:44:13.008Z,99223.14
2023-01-19T05:47:16.965Z,99219.73
2023-01-19T05:50:21.060Z,99215.34
2023-01-19T05:53:25.385Z,99213.63
2023-01-19T05:56:29.414Z,99220.23
2023-01-19T05:59:33.623Z,99230.16
2023-01-19T06:02:37.582Z,99237.02
2023-01-19T06:05:41.651Z,99234.69
2023-01-19T06:08:46.017Z,99234.84
2023-01-19T06:11:50.094Z,99240.12
2023-01-19T06:14:54.079Z,99253.20
2023-01-19T06:17:58.020Z,99270.41
2023-01-19T06:21:10.604Z,99289.16
2023-01-19T06:24:14.572Z,99298.86
2023-01-19T06:27:18.645Z,99302.48
2023-01-19T06:30:23.199Z,99302.32
2023-01-19T06:33:28.143Z,99304.50
2023-01-19T06:36:32.360Z,99303.09
2023-01-19T06:39:37.930Z,99302.72
2023-01-19T06:42:41.945Z,99320.33
2023-01-19T06:45:46.863Z,99318.23
2023-01-19T06:48:52.209Z,99322.52
2023-01-19T06:51:56.661Z,99322.27
2023-01-19T06:55:00.673Z,99322.42
2023-01-19T06:58:05.000Z,99318.88
2023-01-19T07:01:09.303Z,99315.96
2023-01-19T07:04:15.265Z,99310.48
2023-01-19T07:07:19.277Z,99307.71
2023-01-19T07:10:24.436Z,99305.92
2023-01-19T07:13:28.739Z,99299.36
2023-01-19T07:16:32.834Z,99300.45
2023-01-19T07:19:36.989Z,99310.33
2023-01-19T07:22:43.768Z,99313.08
2023-01-19T07:25:47.857Z,99309.81
2023-01-19T07:28:52.712Z,99302.88
2023-01-19T07:31:56.917Z,99306.83
2023-01-19T07:35:00.810Z,99309.77
2023-01-19T07:38:04.967Z,99314.30
2023-01-19T07:41:10.076Z,99314.39
2023-01-19T07:44:14.122Z,99315.15
2023-01-19T07:47:18.243Z,99327.33
2023-01-19T07:50:24.702Z,99340.53
2023-01-19T07:53:29.633Z,99346.57
2023-01-19T07:56:33.955Z,99347.55
2023-01-19T07:59:38.801Z,99355.58
2023-01-19T08:02:42.833Z,99356.30
2023-01-19T08:05:52.404Z,99350.11
2023-01-19T08:08:56.594Z,99338.28
2023-01-19T08:12:00.610Z,99332.04
2023-01-19T08:15:05.814Z,99327.77
2023-01-19T08:18:11.739Z,99322.10
2023-01-19T08:21:16.763Z,99323.30
2023-01-19T08:24:22.954Z,99321.98
2023-01-19T08:27:27.019Z,99316.92
2023-01-19T08:30:31.484Z,99314.44
2023-01-19T08:33:36.486Z,99324.50
2023-01-19T08:36:40.460Z,99334.55
2023-01-19T08:39:45.269Z,99332.95
2023-01-19T08:42:49.223Z,99324.14
2023-01-19T08:45:53.513Z,99326.53
2023-01-19T08:48:57.715Z,99339.52
2023-01-19T08:52:03.151Z,99352.66
2023-01-19T08:55:08.465Z,99360.45
2023-01-19T08:58:12.900Z,99367.20
2023-01-19T09:01:17.141Z,99363.19
2023-01-19T09:04:21.262Z,99353.91
2023-01-19T09:07:25.248Z,99351.59
2023-01-19T09:10:31.671Z,99352.42
2023-01-19T09:13:35.571Z,99357.59
2023-01-19T09:16:39.629Z,99359.95
2023-01-19T09:19:43.765Z,99363.94
2023-01-19T09:22:47.825Z,99359.93
2023-01-19T09:25:57.583Z,99367.27
2023-01-19T09:29:01.684Z,99372.81
2023-01-19T09:32:05.795Z,99371.09
2023-01-19T09:35:09.834Z,99378.98
2023-01-19T09:38:16.385Z,99388.20
2023-01-19T09:41:22.606Z,99386.77
2023-01-19T09:44:33.699Z,99379.16
2023-01-19T09:47:39.271Z,99374.99
2023-01-19T09:50:48.435Z,99370.80
2023-01-19T09:54:14.786Z,99366.69
2023-01-19T09:57:20.739Z,99363.66
2023-01-19T10:00:28.194Z,99360.75
2023-01-19T10:03:36.420Z,99352.53
2023-01-19T10:06:40.821Z,99354.29
2023-01-19T10:10:03.613Z,99353.60
2023-01-19T10:13:26.600Z,99344.14
2023-01-19T10:16:44.083Z,99340.69
2023-01-19T10:19:53.901Z,99335.23
2023-01-19T10:23:00.350Z,99330.75
2023-01-19T10:26:26.184Z,99323.52
2023-01-19T10:29:38.005Z,99329.67
2023-01-19T10:32:42.125Z,99331.41
2023-01-19T10:35:48.896Z,99329.66
2023-01-19T10:38:52.976Z,99320.61
2023-01-19T10:42:00.819Z,99305.65
2023-01-19T10:45:19.292Z,99304.64
2023-01-19T10:48:23.977Z,99314.71
2023-01-19T10:51:28.704Z,99313.56
2023-01-19T10:54:35.108Z,99307.98
2023-01-19T10:57:43.517Z,99308.13
2023-01-19T11:00:47.534Z,99316.27
2023-01-19T11:03:53.546Z,99323.92
2023-01-19T11:07:14.754Z,99327.54
2023-01-19T11:10:25.903Z,99326.52
2023-01-19T11:13:32.962Z,99328.77
2023-01-19T11:16:40.133Z,99321.86
2023-01-19T11:19:54.818Z,99323.23
2023-01-19T11:23:05.522Z,99318.90
2023-01-19T11:26:33.501Z,99307.80
2023-01-19T11:29:39.132Z,99307.80
2023-01-19T11:32:43.182Z,99303.79
2023-01-19T11:35:47.281Z,99303.52
2023-01-19T11:38:54.154Z,99301.60
2023-01-19T11:42:03.719Z,99288.23
2023-01-19T11:45:17.799Z,99282.52
2023-01-19T11:48:36.085Z,99285.18
2023-01-19T11:51:56.711Z,99284.72
2023-01-19T11:55:19.000Z,99288.58
2023-01-19T11:58:24.684Z,99289.91
2023-01-19T12:01:34.637Z,99292.10
2023-01-19T12:04:41.389Z,99285.29
2023-01-19T12:07:47.896Z,99288.02
2023-01-19T12:10:55.619Z,99289.48
2023-01-19T12:14:00.675Z,99292.19
2023-01-19T12:17:12.025Z,99292.33
2023-01-19T12:20:29.305Z,99288.87
2023-01-19T12:23:37.210Z,99278.23
2023-01-19T12:26:44.439Z,99277.20
2023-01-19T12:29:48.899Z,99276.85
2023-01-19T12:33:29.479Z,99274.46
2023-01-19T12:36:40.893Z,99272.54
2023-01-19T12:39:48.934Z,99277.89
2023-01-19T12:43:05.662Z,99282.52
2023-01-19T12:46:41.322Z,99275.46
2023-01-19T12:49:55.374Z,99268.75
2023-01-19T12:53:03.022Z,99274.57
2023-01-19T12:56:10.079Z,99275.45
2023-01-19T12:59:26.642Z,99268.33
2023-01-19T13:02:45.319Z,99263.39
2023-01-19T13:05:51.547Z,99264.88
2023-01-19T13:09:00.891Z,99263.44
2023-01-19T13:12:14.496Z,99267.21
2023-01-19T13:15:34.078Z,99267.41
2023-01-19T13:18:41.585Z,99259.17
2023-01-19T13:21:48.400Z,99261.43
2023-01-19T13:25:12.956Z,99255.98
2023-01-19T13:28:20.063Z,99255.27
2023-01-19T13:31:38.082Z,99257.61
2023-01-19T13:34:51.119Z,99259.86
2023-01-19T13:37:57.801Z,99259.96
2023-01-19T13:41:03.142Z,99266.38
2023-01-19T13:44:20.975Z,99278.23
2023-01-19T13:47:38.007Z,99285.91
2023-01-19T13:50:43.351Z,99295.52
2023-01-19T13:53:55.669Z,99293.71
2023-01-19T13:56:59.677Z,99288.01
2023-01-19T14:00:07.478Z,99291.18
2023-01-19T14:03:23.040Z,99291.56
2023-01-19T14:06:48.914Z,99295.73
2023-01-19T14:10:06.180Z,99289.25
2023-01-19T14:13:13.303Z,99286.23
2023-01-19T14:16:25.249Z,99279.06
2023-01-19T14:19:29.441Z,99281.25
2023-01-19T14:22:43.636Z,99290.97
2023-01-19T14:25:47.586Z,99286.05
2023-01-19T14:28:51.542Z,99280.84
2023-01-19T14:32:01.269Z,99281.91
2023-01-19T14:35:05.488Z,99290.39
2023-01-19T14:38:14.513Z,99289.31
2023-01-19T14:41:45.070Z,99288.39
2023-01-19T14:44:52.474Z,99286.26
2023-01-19T14:47:58.297Z,99287.98
2023-01-19T14:51:04.448Z,99287.55
2023-01-19T14:54:17.789Z,99292.17
2023-01-19T14:57:21.843Z,99298.13
2023-01-19T15:00:27.196Z,99311.20
2023-01-19T15:03:44.859Z,99321.54
2023-01-19T15:06:49.752Z,99326.94
2023-01-19T15:09:53.815Z,99326.23
2023-01-19T15:12:58.095Z,99322.13
2023-01-19T15:16:03.812Z,99315.62
2023-01-19T15:19:12.993Z,99311.13
2023-01-19T15:22:17.006Z,99312.42
2023-01-19T15:25:26.201Z,99319.50
2023-01-19T15:28:31.457Z,99315.66
2023-01-19T15:31:35.821Z,99323.77
2023-01-19T15:34:40.031Z,99325.45
2023-01-19T15:37:44.338Z,99325.64
2023-01-19T15:40:51.444Z,99323.13
2023-01-19T15:43:56.465Z,99329.77
2023-01-19T15:47:00.290Z,99339.16
2023-01-19T15:50:05.047Z,99335.52
2023-01-19T15:53:15.102Z,99332.86
2023-01-19T15:56:25.118Z,99332.41
2023-01-19T15:59:29.061Z,99332.45
2023-01-19T16:02:35.881Z,99334.91
2023-01-19T16:05:43.689Z,99333.37
2023-01-19T16:08:47.919Z,99328.29
2023-01-19T16:11:56.913Z,99325.81
2023-01-19T16:15:00.916Z,99326.56
2023-01-19T16:18:06.163Z,99332.88
2023-01-19T16:21:10.533Z,99333.88
2023-01-19T16:24:14.494Z,99338.17
2023-01-19T16:27:18.823Z,99342.27
2023-01-19T16:30:22.945Z,99344.23
2023-01-19T16:33:26.866Z,99342.27
2023-01-19T16:36:33.120Z,99347.75
2023-01-19T16:39:37.440Z,99353.84
2023-01-19T16:42:41.851Z,99355.80
2023-01-19T16:46:00.802Z,99352.96
2023-01-19T16:49:10.776Z,99345.53
2023-01-19T16:52:15.010Z,99348.24
2023-01-19T16:55:19.035Z,99349.33
2023-01-19T16:58:23.244Z,99348.11
2023-01-19T17:01:29.159Z,99348.90
2023-01-19T17:04:36.241Z,99347.09
2023-01-19T17:07:40.247Z,99345.70
2023-01-19T17:10:44.271Z,99344.60
2023-01-19T17:13:49.232Z,99337.29
2023-01-19T17:16:53.192Z,99332.82
2023-01-19T17:19:57.294Z,99330.71
2023-01-19T17:23:01.198Z,99329.71
2023-01-19T17:26:05.435Z,99328.34
2023-01-19T17:29:10.524Z,99329.20
2023-01-19T17:32:14.409Z,99331.02
2023-01-19T17:35:18.397Z,99330.46
2023-01-19T17:38:22.297Z,99332.89
2023-01-19T17:41:27.763Z,99333.48
2023-01-19T17:44:31.738Z,99331.61
2023-01-19T17:47:35.691Z,99337.19
2023-01-19T17:50:39.910Z,99333.54
2023-01-19T17:53:43.848Z,99326.50
2023-01-19T17:56:48.354Z,99324.27
2023-01-19T17:59:52.378Z,99329.42
2023-01-19T18:02:56.619Z,99326.91
2023-01-19T18:06:00.809Z,99331.62
2023-01-19T18:09:06.908Z,99336.22
2023-01-19T18:12:10.995Z,99335.61
2023-01-19T18:15:16.812Z,99340.83
2023-01-19T18:18:20.983Z,99339.27
2023-01-19T18:21:28.248Z,99338.39
2023-01-19T18:24:32.380Z,99336.88
2023-01-19T18:27:36.407Z,99335.84
2023-01-19T18:30:40.420Z,99337.63
2023-01-19T18:33:45.422Z,99335.53
2023-01-19T18:36:49.200Z,99336.80
2023-01-19T18:39:54.639Z,99337.05
2023-01-19T18:42:58.623Z,99334.70
2023-01-19T18:46:02.974Z,99337.49
2023-01-19T18:49:07.480Z,99335.34
2023-01-19T18:52:11.503Z,99339.48
2023-01-19T18:55:15.510Z,99338.14
2023-01-19T18:58:20.096Z,99339.95
2023-01-19T19:01:26.096Z,99341.38
2023-01-19T19:04:30.133Z,99347.19
2023-01-19T19:07:34.438Z,99345.58
2023-01-19T19:10:40.915Z,99348.71
2023-01-19T19:13:45.386Z,99342.70
2023-01-19T19:16:49.476Z,99348.15
2023-01-19T19:19:53.396Z,99349.70
2023-01-19T19:22:57.406Z,99348.91
2023-01-19T19:26:06.017Z,99350.35
2023-01-19T19:29:10.026Z,99356.31
2023-01-19T19:32:15.611Z,99358.44
2023-01-19T19:35:21.229Z,99359.47
2023-01-19T19:38:26.048Z,99360.60
2023-01-19T19:41:32.221Z,99361.81
2023-01-19T19:44:36.176Z,99364.85
2023-01-19T19:47:40.465Z,99369.61
2023-01-19T19:50:44.404Z,99372.94
2023-01-19T19:53:51.469Z,99380.64
2023-01-19T19:56:55.795Z,99376.55
2023-01-19T19:59:59.756Z,99379.47
2023-01-19T20:03:04.233Z,99378.80
2023-01-19T20:06:15.190Z,99379.39
2023-01-19T20:09:19.159Z,99384.71
2023-01-19T20:12:23.079Z,99387.14
2023-01-19T20:15:26.993Z,99389.95
2023-01-19T20:18:32.205Z,99390.85
2023-01-19T20:21:38.571Z,99395.79
2023-01-19T20:24:42.496Z,99396.83
2023-01-19T20:27:47.521Z,99401.56
2023-01-19T20:30:51.574Z,99401.06
2023-01-19T20:33:58.085Z,99405.52
2023-01-19T20:37:03.973Z,99405.21
2023-01-19T20:40:09.137Z,99408.15
2023-01-19T20:43:13.130Z,99407.33
2023-01-19T20:46:18.478Z,99410.90
2023-01-19T20:49:23.104Z,99413.04
2023-01-19T20:52:27.048Z,99418.50
2023-01-19T20:55:31.198Z,99415.44
2023-01-19T20:58:35.111Z,99418.31
2023-01-19T21:01:40.207Z,99419.84
2023-01-19T21:04:44.488Z,99419.55
2023-01-19T21:07:49.294Z,99417.04
2023-01-19T21:10:56.694Z,99421.13
2023-01-19T21:14:00.957Z,99427.36
2023-01-19T21:17:04.859Z,99431.34
2023-01-19T21:20:10.053Z,99436.94
2023-01-19T21:23:14.051Z,99451.27
2023-01-19T21:26:18.168Z,99456.76
2023-01-19T21:29:22.102Z,99459.94
2023-01-19T21:32:26.249Z,99463.73
2023-01-19T21:35:30.310Z,99467.48
2023-01-19T21:38:36.680Z,99471.52
2023-01-19T21:41:43.316Z,99480.19
2023-01-19T21:44:49.830Z,99489.52
2023-01-19T21:47:53.723Z,99494.17
2023-01-19T21:50:57.967Z,99494.55
2023-01-19T21:54:03.629Z,99494.42
2023-01-19T21:57:07.636Z,99498.20
2023-01-19T22:00:11.708Z,99497.63
2023-01-19T22:03:16.619Z,99498.59
2023-01-19T22:06:21.926Z,99497.46
2023-01-19T22:09:25.957Z,99498.67
2023-01-19T22:12:29.867Z,99507.06
2023-01-19T22:15:33.818Z,99506.94
2023-01-19T22:18:39.292Z,99509.71
2023-01-19T22:21:43.358Z,99511.70
2023-01-19T22:24:50.192Z,99517.23
2023-01-19T22:27:55.218Z,99512.47
2023-01-19T22:31:07.490Z,99512.04
2023-01-19T22:34:11.888Z,99513.14
2023-01-19T22:37:15.815Z,99512.71
2023-01-19T22:40:20.130Z,99515.20
2023-01-19T22:43:24.036Z,99521.65
2023-01-19T22:46:31.149Z,99520.91
2023-01-19T22:49:35.205Z,99521.35
2023-01-19T22:52:39.151Z,99527.59
2023-01-19T22:55:43.188Z,99542.10
2023-01-19T22:58:49.285Z,99543.81
2023-01-19T23:01:53.657Z,99547.60
2023-01-19T23:04:57.900Z,99550.98
2023-01-19T23:08:02.015Z,99554.30
2023-01-19T23:11:08.567Z,99554.23
2023-01-19T23:14:15.294Z,99559.71
2023-01-19T23:17:19.352Z,99564.20
2023-01-19T23:20:23.405Z,99565.06
2023-01-19T23:23:27.421Z,99565.00
2023-01-19T23:26:34.305Z,99563.73
2023-01-19T23:29:38.321Z,99565.04
2023-01-19T23:32:47.018Z,99565.90
2023-01-19T23:35:50.961Z,99569.00
2023-01-19T23:39:02.244Z,99576.52
2023-01-19T23:42:08.229Z,99577.68
2023-01-19T23:45:12.550Z,99585.21
2023-01-19T23:48:16.669Z,99594.11
2023-01-19T23:51:26.861Z,99604.52
2023-01-19T23:54:30.743Z,99610.73
2023-01-19T23:57:34.669Z,99613.06
